createdAt,value
2022-10-05T00:01:53.164Z,7.38
2022-10-05T00:04:24.769Z,3.50
2022-10-05T00:06:29.469Z,5.65
2022-10-05T00:08:35.718Z,3.58
2022-10-05T00:10:41.554Z,3.20
2022-10-05T00:12:49.453Z,5.55
2022-10-05T00:14:55.655Z,4.60
2022-10-05T00:16:58.223Z,6.07
2022-10-05T00:19:40.594Z,4.43
2022-10-05T00:21:42.462Z,5.90
2022-10-05T00:23:44.170Z,4.40
2022-10-05T00:25:49.698Z,8.38
2022-10-05T00:27:57.831Z,7.20
2022-10-05T00:30:10.921Z,4.40
2022-10-05T00:32:12.968Z,7.57
2022-10-05T00:34:15.875Z,6.07
2022-10-05T00:36:17.771Z,6.70
2022-10-05T00:38:19.685Z,5.20
2022-10-05T00:40:39.821Z,6.47
2022-10-05T00:43:13.726Z,4.75
2022-10-05T00:45:25.878Z,5.47
2022-10-05T00:47:43.714Z,6.47
2022-10-05T00:50:03.620Z,5.65
2022-10-05T00:52:47.076Z,4.93
2022-10-05T00:55:14.837Z,5.93
2022-10-05T00:57:39.139Z,5.60
2022-10-05T01:00:02.443Z,3.53
2022-10-05T01:02:20.271Z,4.20
2022-10-05T01:04:44.365Z,6.10
2022-10-05T01:07:07.513Z,7.32
2022-10-05T01:09:26.532Z,5.47
2022-10-05T01:11:30.734Z,3.75
2022-10-05T01:14:20.201Z,3.90
2022-10-05T01:16:31.276Z,3.58
2022-10-05T01:19:09.671Z,6.32
2022-10-05T01:21:36.978Z,7.55
2022-10-05T01:23:57.272Z,2.85
2022-10-05T01:26:33.430Z,6.93
2022-10-05T01:28:52.553Z,5.82
2022-10-05T01:31:08.194Z,3.97
2022-10-05T01:33:29.106Z,6.28
2022-10-05T01:37:59.382Z,5.70
2022-10-05T01:40:20.704Z,3.35
2022-10-05T01:42:34.233Z,2.00
2022-10-05T01:44:55.157Z,5.10
2022-10-05T01:49:44.069Z,5.70
2022-10-05T01:52:03.659Z,8.23
2022-10-05T01:54:20.541Z,4.25
2022-10-05T01:56:30.646Z,4.55
2022-10-05T01:59:12.828Z,3.30
2022-10-05T02:01:14.417Z,8.18
2022-10-05T02:03:25.251Z,5.97
2022-10-05T02:07:40.015Z,6.32
2022-10-05T02:09:49.081Z,6.57
2022-10-05T02:12:07.114Z,3.50
2022-10-05T02:14:15.773Z,1.98
2022-10-05T02:16:34.116Z,7.65
2022-10-05T02:18:43.846Z,8.18
2022-10-05T02:20:48.174Z,3.63
2022-10-05T02:22:53.488Z,6.90
2022-10-05T02:24:59.536Z,8.57
2022-10-05T02:27:04.098Z,6.60
2022-10-05T02:29:15.492Z,5.90
2022-10-05T02:31:23.001Z,3.15
2022-10-05T02:33:33.155Z,4.03
2022-10-05T02:35:35.010Z,3.70
2022-10-05T02:38:07.080Z,5.65
2022-10-05T02:40:23.936Z,5.18
2022-10-05T02:42:39.139Z,8.45
2022-10-05T02:44:43.465Z,3.50
2022-10-05T02:46:57.128Z,6.22
2022-10-05T02:49:28.805Z,7.68
2022-10-05T02:51:51.179Z,6.63
2022-10-05T02:54:11.034Z,4.75
2022-10-05T02:56:35.209Z,5.47
2022-10-05T02:59:10.201Z,4.60
2022-10-05T03:01:26.990Z,3.15
2022-10-05T03:03:39.389Z,4.25
2022-10-05T03:05:58.536Z,10.82
2022-10-05T03:08:22.426Z,9.63
2022-10-05T03:10:55.898Z,9.95
2022-10-05T03:13:21.402Z,2.28
2022-10-05T03:15:54.130Z,4.57
2022-10-05T03:18:14.068Z,3.42
2022-10-05T03:20:27.449Z,5.60
2022-10-05T03:22:40.997Z,4.30
2022-10-05T03:25:02.429Z,2.50
2022-10-05T03:27:17.454Z,6.40
2022-10-05T03:29:31.084Z,8.98
2022-10-05T03:31:46.513Z,8.05
2022-10-05T03:34:15.462Z,4.28
2022-10-05T03:36:33.114Z,5.13
2022-10-05T03:38:48.377Z,4.72
2022-10-05T03:41:17.943Z,4.95
2022-10-05T03:43:19.563Z,4.18
2022-10-05T03:45:30.763Z,3.42
2022-10-05T03:48:13.289Z,2.58
2022-10-05T03:50:42.548Z,3.35
2022-10-05T03:53:00.015Z,3.83
2022-10-05T03:55:05.708Z,4.32
2022-10-05T03:57:13.453Z,3.75
2022-10-05T03:59:20.839Z,1.85
2022-10-05T04:01:38.475Z,4.68
2022-10-05T04:03:46.200Z,4.60
2022-10-05T04:05:53.287Z,3.15
2022-10-05T04:08:15.679Z,3.35
2022-10-05T04:10:22.210Z,4.13
2022-10-05T04:12:38.632Z,3.75
2022-10-05T04:14:48.960Z,2.95
2022-10-05T04:16:58.362Z,3.65
2022-10-05T04:19:04.025Z,6.72
2022-10-05T04:21:38.269Z,4.57
2022-10-05T04:23:44.718Z,8.07
2022-10-05T04:25:54.115Z,3.13
2022-10-05T04:28:11.513Z,2.97
2022-10-05T04:30:15.693Z,8.57
2022-10-05T04:32:26.721Z,4.03
2022-10-05T04:34:48.802Z,2.00
2022-10-05T04:37:01.835Z,7.60
2022-10-05T04:39:20.960Z,3.95
2022-10-05T04:41:53.517Z,4.90
2022-10-05T04:43:57.964Z,5.00
2022-10-05T04:46:21.410Z,5.72
2022-10-05T04:48:47.514Z,4.43
2022-10-05T04:51:19.296Z,5.25
2022-10-05T04:53:31.570Z,4.07
2022-10-05T04:56:05.678Z,6.03
2022-10-05T04:58:30.413Z,4.07
2022-10-05T05:00:45.777Z,3.38
2022-10-05T05:03:08.686Z,8.40
2022-10-05T05:05:22.691Z,5.30
2022-10-05T05:07:39.584Z,4.10
2022-10-05T05:10:05.551Z,7.90
2022-10-05T05:12:24.219Z,4.03
2022-10-05T05:14:57.434Z,2.95
2022-10-05T05:17:33.265Z,4.03
2022-10-05T05:20:19.808Z,1.50
2022-10-05T05:22:44.377Z,3.25
2022-10-05T05:25:19.370Z,6.68
2022-10-05T05:27:38.700Z,1.90
2022-10-05T05:29:46.192Z,5.97
2022-10-05T05:32:07.546Z,5.68
2022-10-05T05:34:27.682Z,7.15
2022-10-05T05:36:38.415Z,5.05
2022-10-05T05:38:54.905Z,2.40
2022-10-05T05:41:15.330Z,1.00
2022-10-05T05:43:33.647Z,4.18
2022-10-05T05:45:42.695Z,3.50
2022-10-05T05:47:52.163Z,4.60
2022-10-05T05:50:30.455Z,5.55
2022-10-05T05:52:41.829Z,5.25
2022-10-05T05:54:54.942Z,2.28
2022-10-05T05:57:30.117Z,3.80
2022-10-05T06:00:11.293Z,7.15
2022-10-05T06:02:25.777Z,3.35
2022-10-05T06:04:33.170Z,2.20
2022-10-05T06:06:40.251Z,4.53
2022-10-05T06:08:50.065Z,8.68
2022-10-05T06:11:17.860Z,4.35
2022-10-05T06:13:35.904Z,4.97
2022-10-05T06:15:52.517Z,1.58
2022-10-05T06:17:57.945Z,5.13
2022-10-05T06:20:05.473Z,5.63
2022-10-05T06:22:22.788Z,4.13
2022-10-05T06:24:38.224Z,3.67
2022-10-05T06:27:04.804Z,3.65
2022-10-05T06:29:14.045Z,4.38
2022-10-05T06:31:23.478Z,5.00
2022-10-05T06:33:46.451Z,6.97
2022-10-05T06:36:03.406Z,8.00
2022-10-05T06:38:36.115Z,9.93
2022-10-05T06:40:56.122Z,7.22
2022-10-05T06:43:19.819Z,7.47
2022-10-05T06:45:40.913Z,6.85
2022-10-05T06:47:49.246Z,3.88
2022-10-05T06:50:52.827Z,6.22
2022-10-05T06:53:32.922Z,7.13
2022-10-05T06:56:11.659Z,6.53
2022-10-05T06:58:43.576Z,3.20
2022-10-05T07:01:11.388Z,4.63
2022-10-05T07:03:28.117Z,3.53
2022-10-05T07:05:53.108Z,5.22
2022-10-05T07:08:06.557Z,4.13
2022-10-05T07:10:14.922Z,4.78
2022-10-05T07:12:43.830Z,3.95
2022-10-05T07:15:19.162Z,4.82
2022-10-05T07:18:09.242Z,6.47
2022-10-05T07:20:13.956Z,6.18
2022-10-05T07:22:34.691Z,3.03
2022-10-05T07:26:51.452Z,5.57
2022-10-05T07:29:08.061Z,4.35
2022-10-05T07:31:19.786Z,6.72
2022-10-05T07:33:40.495Z,7.95
2022-10-05T07:36:54.397Z,8.98
2022-10-05T07:39:06.192Z,4.20
2022-10-05T07:41:43.650Z,1.08
2022-10-05T07:44:07.752Z,3.83
2022-10-05T07:46:26.995Z,7.32
2022-10-05T07:48:43.444Z,5.80
2022-10-05T07:51:10.227Z,5.07
2022-10-05T07:53:18.797Z,5.60
2022-10-05T07:55:23.233Z,3.95
2022-10-05T07:57:53.038Z,8.32
2022-10-05T08:00:02.542Z,6.55
2022-10-05T08:02:26.871Z,7.68
2022-10-05T08:04:39.348Z,7.32
2022-10-05T08:07:01.896Z,4.30
2022-10-05T08:09:18.699Z,4.35
2022-10-05T08:11:31.193Z,9.18
2022-10-05T08:14:20.798Z,6.43
2022-10-05T08:16:26.624Z,4.97
2022-10-05T08:18:49.137Z,4.18
2022-10-05T08:20:56.801Z,11.00
2022-10-05T08:23:05.095Z,4.65
2022-10-05T08:25:24.724Z,5.18
2022-10-05T08:27:46.905Z,10.30
2022-10-05T08:29:54.663Z,9.15
2022-10-05T08:32:01.888Z,12.00
2022-10-05T08:34:40.832Z,4.88
2022-10-05T08:37:07.081Z,4.10
2022-10-05T08:39:17.269Z,8.45
2022-10-05T08:41:31.225Z,8.73
2022-10-05T08:44:17.396Z,7.35
2022-10-05T08:47:07.189Z,5.40
2022-10-05T08:49:46.787Z,8.02
2022-10-05T08:52:29.023Z,7.38
2022-10-05T08:54:36.730Z,6.97
2022-10-05T08:56:43.437Z,6.57
2022-10-05T08:59:04.426Z,7.03
2022-10-05T09:01:18.689Z,10.80
2022-10-05T09:03:48.307Z,11.30
2022-10-05T09:06:04.896Z,8.00
2022-10-05T09:08:24.623Z,5.57
2022-10-05T09:10:38.272Z,8.00
2022-10-05T09:13:17.552Z,9.65
2022-10-05T09:15:43.247Z,6.25
2022-10-05T09:18:12.625Z,13.90
2022-10-05T09:20:41.603Z,7.95
2022-10-05T09:23:06.448Z,6.90
2022-10-05T09:25:28.091Z,8.52
2022-10-05T09:27:48.608Z,7.80
2022-10-05T09:30:18.300Z,8.13
2022-10-05T09:32:30.407Z,8.40
2022-10-05T09:34:55.740Z,11.35
2022-10-05T09:37:45.192Z,8.27
2022-10-05T09:40:02.653Z,9.02
2022-10-05T09:42:33.979Z,4.90
2022-10-05T09:44:45.700Z,6.80
2022-10-05T09:47:02.206Z,8.57
2022-10-05T09:49:19.096Z,15.07
2022-10-05T09:51:31.219Z,8.57
2022-10-05T09:53:45.190Z,11.30
2022-10-05T09:56:21.243Z,4.85
2022-10-05T09:58:52.717Z,9.30
2022-10-05T10:01:36.372Z,8.50
2022-10-05T10:04:24.781Z,12.57
2022-10-05T10:06:48.196Z,11.50
2022-10-05T10:09:07.754Z,10.20
2022-10-05T10:11:34.068Z,6.20
2022-10-05T10:14:17.617Z,8.40
2022-10-05T10:16:50.299Z,5.18
2022-10-05T10:19:08.626Z,8.75
2022-10-05T10:21:34.781Z,9.63
2022-10-05T10:23:48.559Z,6.32
2022-10-05T10:25:59.719Z,10.02
2022-10-05T10:28:34.578Z,9.38
2022-10-05T10:31:00.737Z,9.43
2022-10-05T10:33:25.427Z,12.43
2022-10-05T10:35:36.146Z,10.82
2022-10-05T10:40:34.958Z,12.23
2022-10-05T10:42:46.459Z,5.22
2022-10-05T10:45:17.023Z,8.55
2022-10-05T10:47:50.558Z,5.10
2022-10-05T10:49:58.163Z,8.63
2022-10-05T10:52:09.557Z,8.45
2022-10-05T10:54:34.799Z,9.60
2022-10-05T10:57:04.136Z,9.65
2022-10-05T10:59:30.704Z,8.45
2022-10-05T11:01:55.036Z,6.20
2022-10-05T11:04:11.868Z,3.83
2022-10-05T11:07:05.681Z,12.00
2022-10-05T11:09:48.526Z,7.32
2022-10-05T11:12:44.775Z,7.85
2022-10-05T11:14:52.473Z,12.50
2022-10-05T11:17:18.682Z,11.88
2022-10-05T11:19:40.769Z,11.30
2022-10-05T11:22:28.337Z,9.27
2022-10-05T11:24:48.663Z,8.77
2022-10-05T11:27:00.728Z,8.95
2022-10-05T11:29:11.156Z,12.13
2022-10-05T11:31:31.219Z,20.17
2022-10-05T11:33:38.568Z,12.30
2022-10-05T11:36:17.696Z,12.35
2022-10-05T11:38:36.941Z,10.15
2022-10-05T11:40:47.735Z,8.88
2022-10-05T11:45:21.829Z,14.10
2022-10-05T11:47:30.195Z,10.45
2022-10-05T11:49:40.661Z,6.72
2022-10-05T11:51:59.262Z,8.07
2022-10-05T11:54:05.092Z,6.75
2022-10-05T11:56:34.623Z,7.00
2022-10-05T11:58:54.294Z,8.60
2022-10-05T12:01:14.906Z,6.22
2022-10-05T12:03:36.370Z,6.63
2022-10-05T12:06:06.036Z,8.57
2022-10-05T12:08:14.110Z,6.38
2022-10-05T12:10:38.761Z,6.47
2022-10-05T12:13:03.293Z,5.35
2022-10-05T12:15:25.744Z,5.18
2022-10-05T12:17:45.070Z,4.05
2022-10-05T12:20:17.052Z,5.32
2022-10-05T12:22:34.144Z,3.55
2022-10-05T12:24:35.809Z,6.38
2022-10-05T12:26:47.523Z,8.02
2022-10-05T12:29:13.264Z,5.75
2022-10-05T12:31:20.427Z,6.57
2022-10-05T12:33:48.475Z,8.35
2022-10-05T12:35:57.116Z,5.82
2022-10-05T12:38:03.333Z,6.43
2022-10-05T12:40:11.611Z,5.18
2022-10-05T12:42:40.838Z,7.10
2022-10-05T12:45:12.363Z,4.90
2022-10-05T12:47:25.102Z,5.60
2022-10-05T12:49:33.627Z,6.40
2022-10-05T12:51:56.075Z,2.17
2022-10-05T12:54:24.826Z,2.42
2022-10-05T12:57:07.051Z,3.47
2022-10-05T12:59:19.749Z,8.73
2022-10-05T13:01:30.095Z,4.80
2022-10-05T13:03:39.746Z,6.55
2022-10-05T13:05:41.418Z,5.20
2022-10-05T13:07:59.113Z,3.70
2022-10-05T13:10:03.904Z,5.97
2022-10-05T13:12:28.352Z,10.02
2022-10-05T13:14:51.044Z,3.17
2022-10-05T13:17:04.692Z,16.05
2022-10-05T13:19:19.595Z,4.82
2022-10-05T13:21:28.661Z,7.43
2022-10-05T13:23:49.494Z,9.88
2022-10-05T13:26:09.724Z,11.88
2022-10-05T13:28:12.093Z,6.55
2022-10-05T13:30:20.173Z,7.43
2022-10-05T13:32:38.870Z,8.98
2022-10-05T13:35:40.942Z,7.80
2022-10-05T13:38:01.884Z,22.98
2022-10-05T13:40:13.244Z,12.60
2022-10-05T13:42:54.605Z,5.85
2022-10-05T13:45:12.843Z,3.75
2022-10-05T13:47:24.958Z,5.40
2022-10-05T13:49:49.856Z,2.83
2022-10-05T13:52:33.020Z,5.03
2022-10-05T13:54:50.995Z,2.92
2022-10-05T13:56:57.175Z,2.92
2022-10-05T13:59:17.345Z,1.90
2022-10-05T14:01:28.694Z,7.50
2022-10-05T14:03:38.898Z,2.38
2022-10-05T14:05:55.901Z,2.58
2022-10-05T14:08:16.759Z,4.55
2022-10-05T14:10:38.450Z,2.50
2022-10-05T14:12:43.347Z,2.72
2022-10-05T14:14:50.670Z,0.95
2022-10-05T14:16:58.782Z,1.05
2022-10-05T14:19:29.777Z,4.13
2022-10-05T14:23:53.701Z,3.95
2022-10-05T14:25:56.134Z,3.17
2022-10-05T14:28:25.551Z,1.85
2022-10-05T14:30:29.802Z,3.67
2022-10-05T14:32:44.360Z,2.47
2022-10-05T14:34:59.170Z,1.88
2022-10-05T14:37:27.632Z,0.82
2022-10-05T14:39:33.688Z,1.60
2022-10-05T14:41:37.663Z,3.67
2022-10-05T14:43:50.305Z,3.70
2022-10-05T14:45:57.014Z,1.80
2022-10-05T14:48:01.844Z,4.40
2022-10-05T14:50:25.484Z,4.95
2022-10-05T14:52:32.975Z,2.20
2022-10-05T14:54:58.091Z,3.47
2022-10-05T14:57:25.294Z,2.92
2022-10-05T14:59:56.134Z,1.60
2022-10-05T15:02:42.386Z,1.92
2022-10-05T15:05:01.769Z,1.00
2022-10-05T15:07:04.178Z,2.88
2022-10-05T15:09:24.694Z,2.42
2022-10-05T15:11:57.321Z,1.25
2022-10-05T15:14:00.650Z,4.50
2022-10-05T15:16:17.119Z,2.65
2022-10-05T15:18:28.299Z,2.78
2022-10-05T15:20:45.182Z,2.05
2022-10-05T15:23:05.191Z,0.73
2022-10-05T15:25:13.203Z,0.80
2022-10-05T15:27:44.984Z,4.38
2022-10-05T15:30:04.726Z,1.85
2022-10-05T15:32:18.363Z,1.98
2022-10-05T15:35:05.037Z,2.67
2022-10-05T15:37:08.019Z,0.95
2022-10-05T15:39:27.928Z,1.42
2022-10-05T15:41:55.309Z,0.93
2022-10-05T15:44:06.643Z,1.55
2022-10-05T15:46:15.383Z,2.42
2022-10-05T15:48:24.482Z,0.55
2022-10-05T15:50:29.922Z,1.88
2022-10-05T15:52:55.402Z,4.47
2022-10-05T15:55:27.939Z,1.77
2022-10-05T15:57:38.628Z,1.00
2022-10-05T16:02:29.565Z,1.77
2022-10-05T16:05:40.537Z,1.70
2022-10-05T16:08:11.567Z,1.67
2022-10-05T16:12:29.956Z,2.53
2022-10-05T16:14:31.623Z,2.33
2022-10-05T16:16:38.366Z,3.45
2022-10-05T16:18:55.084Z,3.08
2022-10-05T16:21:22.971Z,2.63
2022-10-05T16:23:57.878Z,2.55
2022-10-05T16:26:09.740Z,3.50
2022-10-05T16:28:49.958Z,3.85
2022-10-05T16:30:58.850Z,2.55
2022-10-05T16:33:24.022Z,5.15
2022-10-05T16:36:08.797Z,2.35
2022-10-05T16:38:16.556Z,1.45
2022-10-05T16:40:45.366Z,4.38
2022-10-05T16:43:14.942Z,3.25
2022-10-05T16:45:45.459Z,4.97
2022-10-05T16:48:09.143Z,4.85
2022-10-05T16:50:33.405Z,4.25
2022-10-05T16:52:40.205Z,5.07
2022-10-05T16:54:48.992Z,5.82
2022-10-05T16:57:04.496Z,4.22
2022-10-05T16:59:44.380Z,1.50
2022-10-05T17:02:23.778Z,2.05
2022-10-05T17:05:01.786Z,2.58
2022-10-05T17:07:09.428Z,4.90
2022-10-05T17:09:35.163Z,1.80
2022-10-05T17:11:58.139Z,5.43
2022-10-05T17:14:35.375Z,6.35
2022-10-05T17:16:45.908Z,3.95
2022-10-05T17:19:38.595Z,2.55
2022-10-05T17:21:45.945Z,3.25
2022-10-05T17:23:56.361Z,4.88
2022-10-05T17:26:07.139Z,3.60
2022-10-05T17:30:22.212Z,5.10
2022-10-05T17:32:39.651Z,4.90
2022-10-05T17:35:00.554Z,6.75
2022-10-05T17:39:22.719Z,4.88
2022-10-05T17:41:24.477Z,5.15
2022-10-05T17:43:28.415Z,3.78
2022-10-05T17:45:30.112Z,4.55
2022-10-05T17:47:56.524Z,2.70
2022-10-05T17:50:18.147Z,7.30
2022-10-05T17:52:45.144Z,7.63
2022-10-05T17:55:21.792Z,5.28
2022-10-05T17:57:27.919Z,3.60
2022-10-05T17:59:53.748Z,4.38
2022-10-05T18:02:38.620Z,4.90
2022-10-05T18:04:42.382Z,5.18
2022-10-05T18:07:00.367Z,4.95
2022-10-05T18:09:22.764Z,6.68
2022-10-05T18:11:38.370Z,10.23
2022-10-05T18:13:50.256Z,10.20
2022-10-05T18:15:52.024Z,8.85
2022-10-05T18:17:59.548Z,16.83
2022-10-05T18:20:13.593Z,11.77
2022-10-05T18:22:20.996Z,11.50
2022-10-05T18:24:33.338Z,6.43
2022-10-05T18:27:00.488Z,9.93
2022-10-05T18:30:01.198Z,8.98
2022-10-05T18:32:25.979Z,4.82
2022-10-05T18:34:37.685Z,15.60
2022-10-05T18:36:48.305Z,14.80
2022-10-05T18:38:58.904Z,8.27
2022-10-05T18:41:09.162Z,12.05
2022-10-05T18:43:29.426Z,12.70
2022-10-05T18:46:09.540Z,11.07
2022-10-05T18:48:35.805Z,10.67
2022-10-05T18:50:40.129Z,16.38
2022-10-05T18:52:49.820Z,6.97
2022-10-05T18:55:10.824Z,11.20
2022-10-05T18:57:34.410Z,12.05
2022-10-05T19:00:14.356Z,8.73
2022-10-05T19:02:40.505Z,15.90
2022-10-05T19:05:00.138Z,10.77
2022-10-05T19:07:19.792Z,14.52
2022-10-05T19:09:30.209Z,14.27
2022-10-05T19:11:43.195Z,8.63
2022-10-05T19:13:57.382Z,11.88
2022-10-05T19:16:22.650Z,9.23
2022-10-05T19:18:46.133Z,12.63
2022-10-05T19:21:24.714Z,12.73
2022-10-05T19:23:38.749Z,11.52
2022-10-05T19:25:48.348Z,12.10
2022-10-05T19:27:58.465Z,8.98
2022-10-05T19:30:21.104Z,14.00
2022-10-05T19:32:50.514Z,12.50
2022-10-05T19:35:30.295Z,11.00
2022-10-05T19:38:00.810Z,10.50
2022-10-05T19:40:28.438Z,14.93
2022-10-05T19:42:42.538Z,9.68
2022-10-05T19:44:56.198Z,16.17
2022-10-05T19:47:08.589Z,11.50
2022-10-05T19:49:10.897Z,8.75
2022-10-05T19:51:28.567Z,9.25
2022-10-05T19:53:37.170Z,11.90
2022-10-05T19:55:44.607Z,14.70
2022-10-05T19:57:48.928Z,10.70
2022-10-05T19:59:57.004Z,14.98
2022-10-05T20:02:00.387Z,14.48
2022-10-05T20:04:02.759Z,12.98
2022-10-05T20:06:08.642Z,9.70
2022-10-05T20:08:24.167Z,15.23
2022-10-05T20:10:29.424Z,14.05
2022-10-05T20:13:20.266Z,9.23
2022-10-05T20:15:46.052Z,11.88
2022-10-05T20:18:06.929Z,12.80
2022-10-05T20:20:30.887Z,11.57
2022-10-05T20:22:35.587Z,9.25
2022-10-05T20:24:50.946Z,12.50
2022-10-05T20:27:07.235Z,14.10
2022-10-05T20:29:09.331Z,14.00
2022-10-05T20:31:10.993Z,8.93
2022-10-05T20:33:14.753Z,14.20
2022-10-05T20:35:18.192Z,7.22
2022-10-05T20:37:20.226Z,9.85
2022-10-05T20:39:21.892Z,15.80
2022-10-05T20:41:23.533Z,13.32
2022-10-05T20:43:25.125Z,11.70
2022-10-05T20:45:26.741Z,8.40
2022-10-05T20:47:28.512Z,13.98
2022-10-05T20:49:35.198Z,7.93
2022-10-05T20:51:40.317Z,16.65
2022-10-05T20:53:41.976Z,11.82
2022-10-05T20:55:43.608Z,11.60
2022-10-05T20:57:46.211Z,10.63
2022-10-05T20:59:48.076Z,8.57
2022-10-05T21:01:49.903Z,12.57
2022-10-05T21:03:51.607Z,12.68
2022-10-05T21:05:53.480Z,7.45
2022-10-05T21:07:55.102Z,11.15
2022-10-05T21:09:56.716Z,11.88
2022-10-05T21:11:58.882Z,10.77
2022-10-05T21:14:05.417Z,6.72
2022-10-05T21:16:08.855Z,16.10
2022-10-05T21:18:10.523Z,11.50
2022-10-05T21:20:12.424Z,10.70
2022-10-05T21:22:18.973Z,14.77
2022-10-05T21:24:20.616Z,15.23
2022-10-05T21:26:22.393Z,8.60
2022-10-05T21:28:24.123Z,22.15
2022-10-05T21:30:25.955Z,13.23
2022-10-05T21:32:27.583Z,16.55
2022-10-05T21:34:29.552Z,24.02
2022-10-05T21:36:32.544Z,15.15
2022-10-05T21:38:34.253Z,9.27
2022-10-05T21:40:35.915Z,10.10
2022-10-05T21:42:37.786Z,14.60
2022-10-05T21:44:39.394Z,13.60
2022-10-05T21:46:41.279Z,16.50
2022-10-05T21:48:43.874Z,10.63
2022-10-05T21:50:46.254Z,16.40
2022-10-05T21:52:48.227Z,16.55
2022-10-05T21:54:49.917Z,12.07
2022-10-05T21:56:55.621Z,12.52
2022-10-05T21:58:57.759Z,12.95
2022-10-05T22:00:59.542Z,12.00
2022-10-05T22:03:01.381Z,18.48
2022-10-05T22:05:03.691Z,7.78
2022-10-05T22:07:19.344Z,12.75
2022-10-05T22:09:21.305Z,16.00
2022-10-05T22:11:22.968Z,14.23
2022-10-05T22:13:26.083Z,11.75
2022-10-05T22:15:29.066Z,20.85
2022-10-05T22:17:31.394Z,11.18
2022-10-05T22:19:33.102Z,15.43
2022-10-05T22:21:41.566Z,13.65
2022-10-05T22:23:45.453Z,9.70
2022-10-05T22:25:48.219Z,11.18
2022-10-05T22:27:50.193Z,17.23
2022-10-05T22:29:52.032Z,12.18
2022-10-05T22:31:56.291Z,9.38
2022-10-05T22:33:58.030Z,13.35
2022-10-05T22:36:00.366Z,15.73
2022-10-05T22:38:05.314Z,12.68
2022-10-05T22:40:08.276Z,9.95
2022-10-05T22:42:10.320Z,9.80
2022-10-05T22:44:12.065Z,10.77
2022-10-05T22:46:13.845Z,11.25
2022-10-05T22:48:40.573Z,12.25
2022-10-05T22:50:57.017Z,14.80
2022-10-05T22:53:21.909Z,16.45
2022-10-05T22:55:34.193Z,13.30
2022-10-05T22:57:43.126Z,14.38
2022-10-05T22:59:45.024Z,11.43
2022-10-05T23:01:46.761Z,15.35
2022-10-05T23:03:48.499Z,13.43
2022-10-05T23:06:00.241Z,16.75
2022-10-05T23:08:02.665Z,10.80
2022-10-05T23:10:09.673Z,12.98
2022-10-05T23:12:12.444Z,16.75
2022-10-05T23:14:14.093Z,15.43
2022-10-05T23:16:18.318Z,11.80
2022-10-05T23:18:20.066Z,10.85
2022-10-05T23:20:22.785Z,10.80
2022-10-05T23:22:25.459Z,12.02
2022-10-05T23:24:27.101Z,12.82
2022-10-05T23:26:28.926Z,13.00
2022-10-05T23:28:31.200Z,10.50
2022-10-05T23:30:33.279Z,18.38
2022-10-05T23:32:43.123Z,9.85
2022-10-05T23:34:44.766Z,13.25
2022-10-05T23:36:46.372Z,12.80
2022-10-05T23:38:48.110Z,14.82
2022-10-05T23:40:49.703Z,9.32
2022-10-05T23:42:51.607Z,9.07
2022-10-05T23:44:53.241Z,8.57
2022-10-05T23:46:56.211Z,11.00
2022-10-05T23:48:57.885Z,15.32
2022-10-05T23:51:00.326Z,13.52
2022-10-05T23:53:01.987Z,16.92
2022-10-05T23:55:05.096Z,10.63
2022-10-05T23:57:06.748Z,16.92
2022-10-05T23:59:08.461Z,8.15
